sensor_id;sensor_type;location;lat;lon;timestamp;temperature;humidity
1415;DHT22;702;49.466;11.086;2023-03-01T00:01:03;-1.10;69.60
1415;DHT22;702;49.466;11.086;2023-03-01T00:03:30;-1.10;69.50
1415;DHT22;702;49.466;11.086;2023-03-01T00:06:00;-1.10;69.50
1415;DHT22;702;49.466;11.086;2023-03-01T00:08:28;-1.10;69.70
1415;DHT22;702;49.466;11.086;2023-03-01T00:11:04;-1.10;69.60
1415;DHT22;702;49.466;11.086;2023-03-01T00:13:34;-1.10;69.60
1415;DHT22;702;49.466;11.086;2023-03-01T00:16:02;-1.10;69.60
1415;DHT22;702;49.466;11.086;2023-03-01T00:18:30;-1.10;69.50
1415;DHT22;702;49.466;11.086;2023-03-01T00:20:57;-1.10;69.50
1415;DHT22;702;49.466;11.086;2023-03-01T00:23:25;-1.20;69.40
1415;DHT22;702;49.466;11.086;2023-03-01T00:25:52;-1.20;69.60
1415;DHT22;702;49.466;11.086;2023-03-01T00:28:21;-1.20;69.80
1415;DHT22;702;49.466;11.086;2023-03-01T00:30:48;-1.20;69.80
1415;DHT22;702;49.466;11.086;2023-03-01T00:33:16;-1.30;69.80
1415;DHT22;702;49.466;11.086;2023-03-01T00:35:44;-1.20;70.00
1415;DHT22;702;49.466;11.086;2023-03-01T00:38:11;-1.30;69.80
1415;DHT22;702;49.466;11.086;2023-03-01T00:40:38;-1.20;69.90
1415;DHT22;702;49.466;11.086;2023-03-01T00:43:05;-1.30;69.80
1415;DHT22;702;49.466;11.086;2023-03-01T00:45:34;-1.30;70.00
1415;DHT22;702;49.466;11.086;2023-03-01T00:48:01;-1.30;69.90
1415;DHT22;702;49.466;11.086;2023-03-01T00:50:28;-1.20;69.80
1415;DHT22;702;49.466;11.086;2023-03-01T00:52:56;-1.30;69.80
1415;DHT22;702;49.466;11.086;2023-03-01T00:55:23;-1.30;69.80
1415;DHT22;702;49.466;11.086;2023-03-01T00:57:51;-1.30;69.90
1415;DHT22;702;49.466;11.086;2023-03-01T01:00:19;-1.30;69.90
1415;DHT22;702;49.466;11.086;2023-03-01T01:02:49;-1.30;69.80
1415;DHT22;702;49.466;11.086;2023-03-01T01:05:16;-1.30;69.80
1415;DHT22;702;49.466;11.086;2023-03-01T01:07:46;-1.20;69.60
1415;DHT22;702;49.466;11.086;2023-03-01T01:10:14;-1.20;69.50
1415;DHT22;702;49.466;11.086;2023-03-01T01:12:46;-1.20;69.50
1415;DHT22;702;49.466;11.086;2023-03-01T01:15:14;-1.20;69.60
1415;DHT22;702;49.466;11.086;2023-03-01T01:17:42;-1.20;69.60
1415;DHT22;702;49.466;11.086;2023-03-01T01:20:12;-1.20;69.50
1415;DHT22;702;49.466;11.086;2023-03-01T01:22:39;-1.20;69.50
1415;DHT22;702;49.466;11.086;2023-03-01T01:25:06;-1.30;69.70
1415;DHT22;702;49.466;11.086;2023-03-01T01:27:34;-1.20;69.60
1415;DHT22;702;49.466;11.086;2023-03-01T01:30:02;-1.30;69.70
1415;DHT22;702;49.466;11.086;2023-03-01T01:32:30;-1.30;69.60
1415;DHT22;702;49.466;11.086;2023-03-01T01:34:57;-1.30;69.60
1415;DHT22;702;49.466;11.086;2023-03-01T01:37:26;-1.30;69.70
1415;DHT22;702;49.466;11.086;2023-03-01T01:39:59;-1.30;69.70
1415;DHT22;702;49.466;11.086;2023-03-01T01:42:27;-1.30;69.80
1415;DHT22;702;49.466;11.086;2023-03-01T01:45:24;-1.30;69.80
1415;DHT22;702;49.466;11.086;2023-03-01T01:47:54;-1.30;69.80
1415;DHT22;702;49.466;11.086;2023-03-01T01:50:22;-1.30;69.70
1415;DHT22;702;49.466;11.086;2023-03-01T01:52:53;-1.30;69.70
1415;DHT22;702;49.466;11.086;2023-03-01T01:55:23;-1.30;69.70
1415;DHT22;702;49.466;11.086;2023-03-01T01:57:54;-1.30;69.60
1415;DHT22;702;49.466;11.086;2023-03-01T02:00:26;-1.30;69.60
1415;DHT22;702;49.466;11.086;2023-03-01T02:02:57;-1.30;69.50
1415;DHT22;702;49.466;11.086;2023-03-01T02:05:33;-1.30;69.50
1415;DHT22;702;49.466;11.086;2023-03-01T02:08:05;-1.30;69.60
1415;DHT22;702;49.466;11.086;2023-03-01T02:10:33;-1.30;69.50
1415;DHT22;702;49.466;11.086;2023-03-01T02:13:02;-1.40;69.50
1415;DHT22;702;49.466;11.086;2023-03-01T02:15:33;-1.30;69.60
1415;DHT22;702;49.466;11.086;2023-03-01T02:18:02;-1.40;69.60
1415;DHT22;702;49.466;11.086;2023-03-01T02:20:34;-1.30;69.60
1415;DHT22;702;49.466;11.086;2023-03-01T02:23:07;-1.30;69.50
1415;DHT22;702;49.466;11.086;2023-03-01T02:25:40;-1.30;69.60
1415;DHT22;702;49.466;11.086;2023-03-01T02:28:23;-1.30;69.50
1415;DHT22;702;49.466;11.086;2023-03-01T02:30:53;-1.30;69.50
1415;DHT22;702;49.466;11.086;2023-03-01T02:33:39;-1.30;69.40
1415;DHT22;702;49.466;11.086;2023-03-01T02:36:08;-1.30;69.50
1415;DHT22;702;49.466;11.086;2023-03-01T02:38:39;-1.30;69.50
1415;DHT22;702;49.466;11.086;2023-03-01T02:41:08;-1.40;69.50
1415;DHT22;702;49.466;11.086;2023-03-01T02:43:37;-1.40;69.60
1415;DHT22;702;49.466;11.086;2023-03-01T02:46:06;-1.40;69.60
1415;DHT22;702;49.466;11.086;2023-03-01T02:48:43;-1.40;69.60
1415;DHT22;702;49.466;11.086;2023-03-01T02:51:38;-1.40;69.60
1415;DHT22;702;49.466;11.086;2023-03-01T02:54:20;-1.40;69.60
1415;DHT22;702;49.466;11.086;2023-03-01T02:56:49;-1.40;69.60
1415;DHT22;702;49.466;11.086;2023-03-01T02:59:21;-1.50;69.60
1415;DHT22;702;49.466;11.086;2023-03-01T03:01:49;-1.50;69.70
1415;DHT22;702;49.466;11.086;2023-03-01T03:04:18;-1.50;69.90
1415;DHT22;702;49.466;11.086;2023-03-01T03:06:49;-1.60;69.80
1415;DHT22;702;49.466;11.086;2023-03-01T03:09:17;-1.50;69.90
1415;DHT22;702;49.466;11.086;2023-03-01T03:11:46;-1.50;70.00
1415;DHT22;702;49.466;11.086;2023-03-01T03:14:15;-1.60;69.90
1415;DHT22;702;49.466;11.086;2023-03-01T03:16:46;-1.60;69.90
1415;DHT22;702;49.466;11.086;2023-03-01T03:19:15;-1.60;69.90
1415;DHT22;702;49.466;11.086;2023-03-01T03:21:42;-1.60;70.00
1415;DHT22;702;49.466;11.086;2023-03-01T03:24:09;-1.70;70.00
1415;DHT22;702;49.466;11.086;2023-03-01T03:26:37;-1.70;70.00
1415;DHT22;702;49.466;11.086;2023-03-01T03:29:04;-1.70;70.10
1415;DHT22;702;49.466;11.086;2023-03-01T03:31:31;-1.70;70.20
1415;DHT22;702;49.466;11.086;2023-03-01T03:34:00;-1.80;70.60
1415;DHT22;702;49.466;11.086;2023-03-01T03:36:27;-1.70;70.30
1415;DHT22;702;49.466;11.086;2023-03-01T03:38:54;-1.80;70.20
1415;DHT22;702;49.466;11.086;2023-03-01T03:41:22;-1.80;70.20
1415;DHT22;702;49.466;11.086;2023-03-01T03:43:49;-1.90;70.40
1415;DHT22;702;49.466;11.086;2023-03-01T03:46:16;-1.90;70.50
1415;DHT22;702;49.466;11.086;2023-03-01T03:48:44;-2.00;70.60
1415;DHT22;702;49.466;11.086;2023-03-01T03:51:14;-1.90;70.70
1415;DHT22;702;49.466;11.086;2023-03-01T03:53:42;-1.90;70.50
1415;DHT22;702;49.466;11.086;2023-03-01T03:56:11;-1.90;70.40
1415;DHT22;702;49.466;11.086;2023-03-01T03:58:38;-1.80;70.50
1415;DHT22;702;49.466;11.086;2023-03-01T04:01:06;-1.90;70.30
1415;DHT22;702;49.466;11.086;2023-03-01T04:03:34;-1.90;70.40
1415;DHT22;702;49.466;11.086;2023-03-01T04:06:02;-2.00;70.60
1415;DHT22;702;49.466;11.086;2023-03-01T04:08:33;-1.90;70.60
1415;DHT22;702;49.466;11.086;2023-03-01T04:11:02;-1.90;70.40
1415;DHT22;702;49.466;11.086;2023-03-01T04:13:52;-1.90;70.30
1415;DHT22;702;49.466;11.086;2023-03-01T04:16:20;-1.90;70.20
1415;DHT22;702;49.466;11.086;2023-03-01T04:18:48;-1.90;70.10
1415;DHT22;702;49.466;11.086;2023-03-01T04:21:15;-1.90;70.10
1415;DHT22;702;49.466;11.086;2023-03-01T04:23:43;-1.90;70.10
1415;DHT22;702;49.466;11.086;2023-03-01T04:26:11;-1.90;70.20
1415;DHT22;702;49.466;11.086;2023-03-01T04:28:40;-2.00;70.20
1415;DHT22;702;49.466;11.086;2023-03-01T04:31:13;-2.10;70.40
1415;DHT22;702;49.466;11.086;2023-03-01T04:33:42;-2.00;70.50
1415;DHT22;702;49.466;11.086;2023-03-01T04:36:11;-2.10;70.30
1415;DHT22;702;49.466;11.086;2023-03-01T04:38:39;-2.10;70.30
1415;DHT22;702;49.466;11.086;2023-03-01T04:41:10;-2.10;70.30
1415;DHT22;702;49.466;11.086;2023-03-01T04:43:37;-2.00;70.30
1415;DHT22;702;49.466;11.086;2023-03-01T04:46:06;-2.10;70.10
1415;DHT22;702;49.466;11.086;2023-03-01T04:48:35;-2.10;70.30
1415;DHT22;702;49.466;11.086;2023-03-01T04:51:03;-2.10;70.30
1415;DHT22;702;49.466;11.086;2023-03-01T04:53:32;-2.10;70.40
1415;DHT22;702;49.466;11.086;2023-03-01T04:56:02;-2.20;70.40
1415;DHT22;702;49.466;11.086;2023-03-01T04:58:31;-2.30;70.50
1415;DHT22;702;49.466;11.086;2023-03-01T05:00:58;-2.30;70.60
1415;DHT22;702;49.466;11.086;2023-03-01T05:03:26;-2.40;71.00
1415;DHT22;702;49.466;11.086;2023-03-01T05:05:53;-2.30;71.10
1415;DHT22;702;49.466;11.086;2023-03-01T05:08:21;-2.40;71.00
1415;DHT22;702;49.466;11.086;2023-03-01T05:10:50;-2.40;71.10
1415;DHT22;702;49.466;11.086;2023-03-01T05:13:19;-2.50;71.00
1415;DHT22;702;49.466;11.086;2023-03-01T05:15:54;-2.50;71.50
1415;DHT22;702;49.466;11.086;2023-03-01T05:18:24;-2.50;71.70
1415;DHT22;702;49.466;11.086;2023-03-01T05:20:53;-2.40;71.50
1415;DHT22;702;49.466;11.086;2023-03-01T05:23:24;-2.30;71.50
1415;DHT22;702;49.466;11.086;2023-03-01T05:25:51;-2.30;71.30
1415;DHT22;702;49.466;11.086;2023-03-01T05:28:19;-2.40;71.40
1415;DHT22;702;49.466;11.086;2023-03-01T05:30:47;-2.50;71.50
1415;DHT22;702;49.466;11.086;2023-03-01T05:33:17;-2.40;71.80
1415;DHT22;702;49.466;11.086;2023-03-01T05:35:45;-2.40;71.70
1415;DHT22;702;49.466;11.086;2023-03-01T05:38:15;-2.40;71.50
1415;DHT22;702;49.466;11.086;2023-03-01T05:40:44;-2.30;71.60
1415;DHT22;702;49.466;11.086;2023-03-01T05:43:15;-2.30;71.60
1415;DHT22;702;49.466;11.086;2023-03-01T05:45:43;-2.30;71.50
1415;DHT22;702;49.466;11.086;2023-03-01T05:48:13;-2.30;71.60
1415;DHT22;702;49.466;11.086;2023-03-01T05:50:42;-2.30;71.50
1415;DHT22;702;49.466;11.086;2023-03-01T05:53:13;-2.40;71.50
1415;DHT22;702;49.466;11.086;2023-03-01T05:55:42;-2.40;71.60
1415;DHT22;702;49.466;11.086;2023-03-01T05:58:11;-2.40;71.60
1415;DHT22;702;49.466;11.086;2023-03-01T06:00:41;-2.40;71.50
1415;DHT22;702;49.466;11.086;2023-03-01T06:03:10;-2.40;71.80
1415;DHT22;702;49.466;11.086;2023-03-01T06:05:40;-2.40;71.70
1415;DHT22;702;49.466;11.086;2023-03-01T06:08:09;-2.30;71.70
1415;DHT22;702;49.466;11.086;2023-03-01T06:10:38;-2.30;71.60
1415;DHT22;702;49.466;11.086;2023-03-01T06:13:06;-2.20;71.40
1415;DHT22;702;49.466;11.086;2023-03-01T06:15:33;-2.20;71.10
1415;DHT22;702;49.466;11.086;2023-03-01T06:18:00;-2.10;71.10
1415;DHT22;702;49.466;11.086;2023-03-01T06:20:29;-2.10;70.90
1415;DHT22;702;49.466;11.086;2023-03-01T06:22:56;-2.10;70.90
1415;DHT22;702;49.466;11.086;2023-03-01T06:25:26;-2.00;70.70
1415;DHT22;702;49.466;11.086;2023-03-01T06:27:54;-2.00;70.80
1415;DHT22;702;49.466;11.086;2023-03-01T06:30:23;-2.00;70.80
1415;DHT22;702;49.466;11.086;2023-03-01T06:32:52;-2.00;70.60
1415;DHT22;702;49.466;11.086;2023-03-01T06:35:26;-1.90;70.60
1415;DHT22;702;49.466;11.086;2023-03-01T06:37:58;-1.90;70.40
1415;DHT22;702;49.466;11.086;2023-03-01T06:40:26;-1.90;70.50
1415;DHT22;702;49.466;11.086;2023-03-01T06:42:53;-1.90;70.60
1415;DHT22;702;49.466;11.086;2023-03-01T06:45:21;-1.90;70.50
1415;DHT22;702;49.466;11.086;2023-03-01T06:47:49;-1.80;70.40
1415;DHT22;702;49.466;11.086;2023-03-01T06:50:17;-1.80;70.40
1415;DHT22;702;49.466;11.086;2023-03-01T06:52:45;-1.70;70.30
1415;DHT22;702;49.466;11.086;2023-03-01T06:55:14;-1.70;70.10
1415;DHT22;702;49.466;11.086;2023-03-01T06:57:41;-1.60;69.90
1415;DHT22;702;49.466;11.086;2023-03-01T07:00:09;-1.50;69.90
1415;DHT22;702;49.466;11.086;2023-03-01T07:02:37;-1.40;69.70
1415;DHT22;702;49.466;11.086;2023-03-01T07:05:05;-1.40;69.60
1415;DHT22;702;49.466;11.086;2023-03-01T07:07:34;-1.30;69.60
1415;DHT22;702;49.466;11.086;2023-03-01T07:10:01;-1.20;69.10
1415;DHT22;702;49.466;11.086;2023-03-01T07:12:30;-1.10;68.90
1415;DHT22;702;49.466;11.086;2023-03-01T07:14:57;-1.00;68.60
1415;DHT22;702;49.466;11.086;2023-03-01T07:17:24;-1.00;68.50
1415;DHT22;702;49.466;11.086;2023-03-01T07:19:52;-0.90;68.20
1415;DHT22;702;49.466;11.086;2023-03-01T07:22:19;-0.80;67.90
1415;DHT22;702;49.466;11.086;2023-03-01T07:24:46;-0.70;67.80
1415;DHT22;702;49.466;11.086;2023-03-01T07:27:13;-0.70;67.30
1415;DHT22;702;49.466;11.086;2023-03-01T07:29:42;-0.60;67.30
1415;DHT22;702;49.466;11.086;2023-03-01T07:32:09;-0.50;67.20
1415;DHT22;702;49.466;11.086;2023-03-01T07:34:37;-0.50;66.80
1415;DHT22;702;49.466;11.086;2023-03-01T07:37:04;-0.40;66.70
1415;DHT22;702;49.466;11.086;2023-03-01T07:39:32;-0.40;66.50
1415;DHT22;702;49.466;11.086;2023-03-01T07:41:59;-0.30;66.40
1415;DHT22;702;49.466;11.086;2023-03-01T07:44:26;-0.30;66.10
1415;DHT22;702;49.466;11.086;2023-03-01T07:46:55;-0.20;66.20
1415;DHT22;702;49.466;11.086;2023-03-01T07:49:23;-0.10;65.60
1415;DHT22;702;49.466;11.086;2023-03-01T07:51:52;0.00;65.30
1415;DHT22;702;49.466;11.086;2023-03-01T07:54:19;0.10;65.30
1415;DHT22;702;49.466;11.086;2023-03-01T07:56:46;0.10;64.90
1415;DHT22;702;49.466;11.086;2023-03-01T07:59:14;0.20;64.30
1415;DHT22;702;49.466;11.086;2023-03-01T08:01:41;0.20;64.20
1415;DHT22;702;49.466;11.086;2023-03-01T08:04:09;0.30;63.60
1415;DHT22;702;49.466;11.086;2023-03-01T08:06:37;0.30;63.30
1415;DHT22;702;49.466;11.086;2023-03-01T08:09:04;0.40;63.50
1415;DHT22;702;49.466;11.086;2023-03-01T08:11:32;0.60;63.30
1415;DHT22;702;49.466;11.086;2023-03-01T08:13:59;0.60;62.60
1415;DHT22;702;49.466;11.086;2023-03-01T08:16:27;0.60;62.40
1415;DHT22;702;49.466;11.086;2023-03-01T08:18:54;0.70;62.20
1415;DHT22;702;49.466;11.086;2023-03-01T08:21:23;0.80;62.30
1415;DHT22;702;49.466;11.086;2023-03-01T08:23:51;0.90;61.80
1415;DHT22;702;49.466;11.086;2023-03-01T08:26:20;1.00;61.50
1415;DHT22;702;49.466;11.086;2023-03-01T08:28:49;1.10;60.90
1415;DHT22;702;49.466;11.086;2023-03-01T08:31:18;1.00;60.40
1415;DHT22;702;49.466;11.086;2023-03-01T08:33:48;1.10;60.80
1415;DHT22;702;49.466;11.086;2023-03-01T08:36:17;1.20;60.20
1415;DHT22;702;49.466;11.086;2023-03-01T08:38:48;1.20;59.40
1415;DHT22;702;49.466;11.086;2023-03-01T08:41:15;1.20;59.60
1415;DHT22;702;49.466;11.086;2023-03-01T08:43:42;1.30;59.40
1415;DHT22;702;49.466;11.086;2023-03-01T08:46:10;1.40;59.00
1415;DHT22;702;49.466;11.086;2023-03-01T08:48:38;1.40;58.60
1415;DHT22;702;49.466;11.086;2023-03-01T08:51:10;1.40;58.30
1415;DHT22;702;49.466;11.086;2023-03-01T08:53:39;1.50;57.90
1415;DHT22;702;49.466;11.086;2023-03-01T08:56:09;1.60;58.20
1415;DHT22;702;49.466;11.086;2023-03-01T08:58:37;1.80;58.10
1415;DHT22;702;49.466;11.086;2023-03-01T09:01:07;1.90;57.60
1415;DHT22;702;49.466;11.086;2023-03-01T09:03:35;2.10;57.40
1415;DHT22;702;49.466;11.086;2023-03-01T09:06:03;2.20;57.00
1415;DHT22;702;49.466;11.086;2023-03-01T09:08:34;2.30;56.50
1415;DHT22;702;49.466;11.086;2023-03-01T09:11:03;2.40;56.30
1415;DHT22;702;49.466;11.086;2023-03-01T09:13:32;2.30;55.60
1415;DHT22;702;49.466;11.086;2023-03-01T09:16:01;2.30;55.70
1415;DHT22;702;49.466;11.086;2023-03-01T09:18:29;2.40;55.30
1415;DHT22;702;49.466;11.086;2023-03-01T09:21:01;2.40;55.00
1415;DHT22;702;49.466;11.086;2023-03-01T09:23:33;2.50;54.70
1415;DHT22;702;49.466;11.086;2023-03-01T09:26:01;2.50;54.30
1415;DHT22;702;49.466;11.086;2023-03-01T09:28:29;2.50;54.30
1415;DHT22;702;49.466;11.086;2023-03-01T09:31:00;2.60;54.10
1415;DHT22;702;49.466;11.086;2023-03-01T09:33:27;2.70;53.40
1415;DHT22;702;49.466;11.086;2023-03-01T09:35:56;2.80;53.20
1415;DHT22;702;49.466;11.086;2023-03-01T09:38:24;2.90;53.20
1415;DHT22;702;49.466;11.086;2023-03-01T09:40:52;2.90;52.90
1415;DHT22;702;49.466;11.086;2023-03-01T09:43:25;3.10;53.00
1415;DHT22;702;49.466;11.086;2023-03-01T09:46:01;3.10;52.60
1415;DHT22;702;49.466;11.086;2023-03-01T09:48:36;3.20;52.30
1415;DHT22;702;49.466;11.086;2023-03-01T09:51:07;3.20;51.80
1415;DHT22;702;49.466;11.086;2023-03-01T09:53:39;3.30;52.10
1415;DHT22;702;49.466;11.086;2023-03-01T09:56:15;3.30;51.50
1415;DHT22;702;49.466;11.086;2023-03-01T09:58:51;3.40;51.30
1415;DHT22;702;49.466;11.086;2023-03-01T10:01:33;3.50;51.20
1415;DHT22;702;49.466;11.086;2023-03-01T10:04:24;3.50;51.20
1415;DHT22;702;49.466;11.086;2023-03-01T10:07:14;3.70;51.00
1415;DHT22;702;49.466;11.086;2023-03-01T10:09:48;3.70;50.70
1415;DHT22;702;49.466;11.086;2023-03-01T10:12:17;3.70;50.50
1415;DHT22;702;49.466;11.086;2023-03-01T10:14:53;3.80;50.50
1415;DHT22;702;49.466;11.086;2023-03-01T10:17:30;3.90;50.40
1415;DHT22;702;49.466;11.086;2023-03-01T10:20:19;3.90;50.00
1415;DHT22;702;49.466;11.086;2023-03-01T10:22:47;3.90;49.80
1415;DHT22;702;49.466;11.086;2023-03-01T10:25:34;4.10;49.70
1415;DHT22;702;49.466;11.086;2023-03-01T10:28:17;4.00;49.50
1415;DHT22;702;49.466;11.086;2023-03-01T10:30:44;4.00;49.40
1415;DHT22;702;49.466;11.086;2023-03-01T10:33:18;4.10;49.50
1415;DHT22;702;49.466;11.086;2023-03-01T10:35:47;4.20;49.30
1415;DHT22;702;49.466;11.086;2023-03-01T10:38:16;4.20;49.00
1415;DHT22;702;49.466;11.086;2023-03-01T10:40:54;4.20;49.00
1415;DHT22;702;49.466;11.086;2023-03-01T10:43:24;4.20;49.40
1415;DHT22;702;49.466;11.086;2023-03-01T10:45:53;4.40;49.30
1415;DHT22;702;49.466;11.086;2023-03-01T10:48:23;4.50;48.80
1415;DHT22;702;49.466;11.086;2023-03-01T10:51:04;4.40;48.60
1415;DHT22;702;49.466;11.086;2023-03-01T10:53:35;4.40;48.90
1415;DHT22;702;49.466;11.086;2023-03-01T10:56:06;4.50;48.40
1415;DHT22;702;49.466;11.086;2023-03-01T10:58:36;4.50;48.30
1415;DHT22;702;49.466;11.086;2023-03-01T11:01:06;4.60;48.70
1415;DHT22;702;49.466;11.086;2023-03-01T11:04:09;4.80;48.70
1415;DHT22;702;49.466;11.086;2023-03-01T11:06:40;4.90;48.10
1415;DHT22;702;49.466;11.086;2023-03-01T11:09:15;5.00;47.80
1415;DHT22;702;49.466;11.086;2023-03-01T11:11:44;5.10;47.90
1415;DHT22;702;49.466;11.086;2023-03-01T11:14:16;5.00;47.20
1415;DHT22;702;49.466;11.086;2023-03-01T11:16:45;5.20;47.30
1415;DHT22;702;49.466;11.086;2023-03-01T11:19:19;5.20;47.20
1415;DHT22;702;49.466;11.086;2023-03-01T11:21:58;5.20;47.30
1415;DHT22;702;49.466;11.086;2023-03-01T11:24:36;5.40;47.30
1415;DHT22;702;49.466;11.086;2023-03-01T11:27:17;5.60;47.10
1415;DHT22;702;49.466;11.086;2023-03-01T11:29:50;5.70;46.70
1415;DHT22;702;49.466;11.086;2023-03-01T11:32:24;5.80;46.50
1415;DHT22;702;49.466;11.086;2023-03-01T11:34:57;5.80;46.10
1415;DHT22;702;49.466;11.086;2023-03-01T11:37:33;5.90;46.10
1415;DHT22;702;49.466;11.086;2023-03-01T11:40:13;6.00;46.40
1415;DHT22;702;49.466;11.086;2023-03-01T11:42:59;6.00;45.90
1415;DHT22;702;49.466;11.086;2023-03-01T11:45:39;6.10;46.10
1415;DHT22;702;49.466;11.086;2023-03-01T11:48:42;6.10;45.60
1415;DHT22;702;49.466;11.086;2023-03-01T11:51:20;6.20;45.80
1415;DHT22;702;49.466;11.086;2023-03-01T11:54:18;6.40;46.00
1415;DHT22;702;49.466;11.086;2023-03-01T11:56:57;6.60;45.60
1415;DHT22;702;49.466;11.086;2023-03-01T11:59:45;6.60;45.60
1415;DHT22;702;49.466;11.086;2023-03-01T12:05:55;6.80;45.10
1415;DHT22;702;49.466;11.086;2023-03-01T12:08:36;6.80;44.90
1415;DHT22;702;49.466;11.086;2023-03-01T12:11:13;6.80;45.00
1415;DHT22;702;49.466;11.086;2023-03-01T12:14:09;6.80;45.00
1415;DHT22;702;49.466;11.086;2023-03-01T12:20:06;7.00;44.60
1415;DHT22;702;49.466;11.086;2023-03-01T12:22:48;7.00;44.60
1415;DHT22;702;49.466;11.086;2023-03-01T12:25:34;7.10;44.60
1415;DHT22;702;49.466;11.086;2023-03-01T12:31:36;7.00;44.70
1415;DHT22;702;49.466;11.086;2023-03-01T12:34:22;7.30;44.90
1415;DHT22;702;49.466;11.086;2023-03-01T12:40:15;7.20;44.90
1415;DHT22;702;49.466;11.086;2023-03-01T12:42:58;7.20;44.80
1415;DHT22;702;49.466;11.086;2023-03-01T12:45:51;7.30;44.80
1415;DHT22;702;49.466;11.086;2023-03-01T12:48:32;7.50;44.80
1415;DHT22;702;49.466;11.086;2023-03-01T12:51:08;7.60;44.90
1415;DHT22;702;49.466;11.086;2023-03-01T12:53:40;7.60;45.20
1415;DHT22;702;49.466;11.086;2023-03-01T12:56:10;7.70;45.10
1415;DHT22;702;49.466;11.086;2023-03-01T12:58:46;7.60;45.10
1415;DHT22;702;49.466;11.086;2023-03-01T13:01:29;7.70;45.50
1415;DHT22;702;49.466;11.086;2023-03-01T13:04:08;7.60;45.30
1415;DHT22;702;49.466;11.086;2023-03-01T13:06:57;7.70;45.60
1415;DHT22;702;49.466;11.086;2023-03-01T13:09:36;7.70;45.60
1415;DHT22;702;49.466;11.086;2023-03-01T13:12:42;7.90;45.60
1415;DHT22;702;49.466;11.086;2023-03-01T13:15:31;8.00;45.60
1415;DHT22;702;49.466;11.086;2023-03-01T13:18:00;8.20;45.80
1415;DHT22;702;49.466;11.086;2023-03-01T13:20:34;8.30;45.40
1415;DHT22;702;49.466;11.086;2023-03-01T13:23:24;8.30;45.40
1415;DHT22;702;49.466;11.086;2023-03-01T13:26:06;8.20;45.30
1415;DHT22;702;49.466;11.086;2023-03-01T13:28:48;8.10;45.40
1415;DHT22;702;49.466;11.086;2023-03-01T13:34:44;8.10;45.80
1415;DHT22;702;49.466;11.086;2023-03-01T13:37:27;8.00;45.60
1415;DHT22;702;49.466;11.086;2023-03-01T13:43:29;8.10;46.30
1415;DHT22;702;49.466;11.086;2023-03-01T13:45:58;8.10;45.90
1415;DHT22;702;49.466;11.086;2023-03-01T13:48:29;8.20;46.20
1415;DHT22;702;49.466;11.086;2023-03-01T13:51:00;8.20;46.00
1415;DHT22;702;49.466;11.086;2023-03-01T13:53:30;8.30;46.10
1415;DHT22;702;49.466;11.086;2023-03-01T13:56:03;8.40;46.40
1415;DHT22;702;49.466;11.086;2023-03-01T13:58:46;8.50;46.30
1415;DHT22;702;49.466;11.086;2023-03-01T14:01:23;8.50;46.00
1415;DHT22;702;49.466;11.086;2023-03-01T14:03:55;8.30;45.60
1415;DHT22;702;49.466;11.086;2023-03-01T14:06:24;8.30;46.20
1415;DHT22;702;49.466;11.086;2023-03-01T14:09:03;8.30;45.80
1415;DHT22;702;49.466;11.086;2023-03-01T14:14:52;8.40;45.90
1415;DHT22;702;49.466;11.086;2023-03-01T14:17:52;8.40;46.10
1415;DHT22;702;49.466;11.086;2023-03-01T14:20:25;8.40;46.20
1415;DHT22;702;49.466;11.086;2023-03-01T14:22:55;8.40;46.40
1415;DHT22;702;49.466;11.086;2023-03-01T14:25:26;8.40;46.30
1415;DHT22;702;49.466;11.086;2023-03-01T14:28:02;8.30;46.40
1415;DHT22;702;49.466;11.086;2023-03-01T14:30:33;8.30;46.50
1415;DHT22;702;49.466;11.086;2023-03-01T14:33:16;8.20;46.40
1415;DHT22;702;49.466;11.086;2023-03-01T14:35:55;8.20;46.50
1415;DHT22;702;49.466;11.086;2023-03-01T14:38:30;8.20;46.70
1415;DHT22;702;49.466;11.086;2023-03-01T14:41:03;8.30;46.70
1415;DHT22;702;49.466;11.086;2023-03-01T14:43:32;8.30;46.80
1415;DHT22;702;49.466;11.086;2023-03-01T14:46:00;8.30;46.80
1415;DHT22;702;49.466;11.086;2023-03-01T14:48:28;8.30;46.80
1415;DHT22;702;49.466;11.086;2023-03-01T14:50:58;8.30;46.80
1415;DHT22;702;49.466;11.086;2023-03-01T14:53:28;8.20;46.90
1415;DHT22;702;49.466;11.086;2023-03-01T14:55:59;8.20;46.90
1415;DHT22;702;49.466;11.086;2023-03-01T14:58:28;8.30;47.00
1415;DHT22;702;49.466;11.086;2023-03-01T15:01:00;8.30;47.00
1415;DHT22;702;49.466;11.086;2023-03-01T15:03:32;8.30;46.90
1415;DHT22;702;49.466;11.086;2023-03-01T15:06:05;8.30;47.20
1415;DHT22;702;49.466;11.086;2023-03-01T15:08:33;8.20;47.10
1415;DHT22;702;49.466;11.086;2023-03-01T15:11:05;8.20;47.20
1415;DHT22;702;49.466;11.086;2023-03-01T15:13:42;8.10;47.10
1415;DHT22;702;49.466;11.086;2023-03-01T15:16:12;8.00;47.20
1415;DHT22;702;49.466;11.086;2023-03-01T15:18:45;8.00;47.30
1415;DHT22;702;49.466;11.086;2023-03-01T15:21:19;8.00;47.30
1415;DHT22;702;49.466;11.086;2023-03-01T15:23:50;8.00;47.40
1415;DHT22;702;49.466;11.086;2023-03-01T15:26:25;7.90;47.40
1415;DHT22;702;49.466;11.086;2023-03-01T15:28:56;8.00;47.70
1415;DHT22;702;49.466;11.086;2023-03-01T15:31:27;8.00;47.70
1415;DHT22;702;49.466;11.086;2023-03-01T15:34:09;7.90;47.80
1415;DHT22;702;49.466;11.086;2023-03-01T15:36:52;7.90;48.00
1415;DHT22;702;49.466;11.086;2023-03-01T15:39:33;7.80;48.00
1415;DHT22;702;49.466;11.086;2023-03-01T15:42:08;7.70;48.00
1415;DHT22;702;49.466;11.086;2023-03-01T15:44:40;7.80;48.20
1415;DHT22;702;49.466;11.086;2023-03-01T15:47:28;7.70;48.30
1415;DHT22;702;49.466;11.086;2023-03-01T15:50:00;7.70;48.30
1415;DHT22;702;49.466;11.086;2023-03-01T15:52:33;7.70;48.40
1415;DHT22;702;49.466;11.086;2023-03-01T15:55:10;7.70;48.30
1415;DHT22;702;49.466;11.086;2023-03-01T15:57:42;7.70;48.40
1415;DHT22;702;49.466;11.086;2023-03-01T16:00:10;7.70;48.50
1415;DHT22;702;49.466;11.086;2023-03-01T16:02:42;7.50;48.30
1415;DHT22;702;49.466;11.086;2023-03-01T16:05:17;7.50;48.60
1415;DHT22;702;49.466;11.086;2023-03-01T16:07:48;7.40;48.60
1415;DHT22;702;49.466;11.086;2023-03-01T16:10:16;7.40;48.80
1415;DHT22;702;49.466;11.086;2023-03-01T16:12:43;7.30;48.70
1415;DHT22;702;49.466;11.086;2023-03-01T16:15:15;7.30;48.70
1415;DHT22;702;49.466;11.086;2023-03-01T16:17:44;7.30;48.70
1415;DHT22;702;49.466;11.086;2023-03-01T16:20:12;7.20;48.90
1415;DHT22;702;49.466;11.086;2023-03-01T16:22:41;7.10;48.80
1415;DHT22;702;49.466;11.086;2023-03-01T16:25:11;7.10;49.00
1415;DHT22;702;49.466;11.086;2023-03-01T16:27:42;7.00;48.90
1415;DHT22;702;49.466;11.086;2023-03-01T16:30:11;7.00;49.00
1415;DHT22;702;49.466;11.086;2023-03-01T16:32:39;6.90;49.10
1415;DHT22;702;49.466;11.086;2023-03-01T16:35:07;6.80;49.30
1415;DHT22;702;49.466;11.086;2023-03-01T16:37:36;6.70;49.30
1415;DHT22;702;49.466;11.086;2023-03-01T16:40:06;6.70;49.40
1415;DHT22;702;49.466;11.086;2023-03-01T16:42:44;6.60;49.60
1415;DHT22;702;49.466;11.086;2023-03-01T16:45:13;6.60;49.70
1415;DHT22;702;49.466;11.086;2023-03-01T16:47:40;6.50;49.80
1415;DHT22;702;49.466;11.086;2023-03-01T16:50:08;6.40;49.90
1415;DHT22;702;49.466;11.086;2023-03-01T16:52:36;6.30;50.10
1415;DHT22;702;49.466;11.086;2023-03-01T16:55:05;6.30;50.20
1415;DHT22;702;49.466;11.086;2023-03-01T16:57:35;6.20;50.30
1415;DHT22;702;49.466;11.086;2023-03-01T17:00:06;6.10;50.50
1415;DHT22;702;49.466;11.086;2023-03-01T17:02:39;6.00;50.60